Time;durP1;ratioP1;P1;durP2;ratioP2;P2;SDS_P1;SDS_P2;PMS_P1;PMS_P2;Temp;Humidity;BMP_temperature;BMP_pressure;BME280_temperature;BME280_humidity;BME280_pressure;Samples;Min_cycle;Max_cycle;Signal;HPM_P1;HPM_P2
2022/07/27 00:01:14;;;;;;;13.80;10.30;;;;;;;15.47;83.24;97738.31;108130;1289;22301;-86
2022/07/27 00:03:43;;;;;;;11.60;10.30;;;;;;;15.32;83.31;97743.27;108045;1287;22287;-85
2022/07/27 00:06:13;;;;;;;11.80;9.60;;;;;;;15.21;83.78;97743.10;108050;1288;23112;-85
2022/07/27 00:08:41;;;;;;;11.30;9.90;;;;;;;15.30;84.75;97739.46;108244;1288;23018;-85
2022/07/27 00:11:10;;;;;;;12.10;9.40;;;;;;;15.37;83.85;97746.61;108229;1288;22322;-84
2022/07/27 00:13:38;;;;;;;12.90;8.40;;;;;;;15.32;84.12;97741.95;108150;1289;22214;-85
2022/07/27 00:16:06;;;;;;;11.90;9.80;;;;;;;15.41;84.59;97736.45;108236;1288;22358;-85
2022/07/27 00:18:34;;;;;;;13.70;9.70;;;;;;;15.47;84.13;97734.73;108265;1288;22263;-85
2022/07/27 00:21:02;;;;;;;12.20;7.90;;;;;;;15.51;84.93;97729.67;108245;1288;23082;-85
2022/07/27 00:23:30;;;;;;;16.10;8.60;;;;;;;15.88;87.07;97722.18;108265;1287;23006;-85
2022/07/27 00:25:58;;;;;;;9.70;7.70;;;;;;;16.25;86.00;97719.34;107902;1289;22310;-85
2022/07/27 00:28:26;;;;;;;12.50;9.80;;;;;;;16.45;84.33;97725.71;108250;1286;22344;-84
2022/07/27 00:30:54;;;;;;;9.30;8.00;;;;;;;16.54;83.97;97724.98;108241;1287;22351;-85
2022/07/27 00:33:22;;;;;;;15.40;9.20;;;;;;;16.36;82.80;97732.84;108263;1288;22354;-84
2022/07/27 00:35:50;;;;;;;14.10;9.40;;;;;;;15.87;82.28;97736.28;108230;1288;22376;-85
2022/07/27 00:38:18;;;;;;;9.70;8.70;;;;;;;15.45;83.83;97736.38;108252;1288;22336;-85
2022/07/27 00:40:46;;;;;;;12.80;9.90;;;;;;;15.59;85.98;97738.48;108253;1288;22292;-84
2022/07/27 00:43:14;;;;;;;11.90;10.20;;;;;;;15.64;84.24;97737.57;108216;1288;22383;-85
2022/07/27 00:45:42;;;;;;;12.50;9.60;;;;;;;15.81;85.45;97735.32;108176;1290;22381;-85
2022/07/27 00:48:10;;;;;;;9.80;8.30;;;;;;;16.08;84.85;97732.61;108169;1290;22353;-85
2022/07/27 00:50:42;;;;;;;9.10;7.80;;;;;;;16.14;83.58;97734.70;108023;1290;22412;-86
2022/07/27 00:53:10;;;;;;;10.20;8.80;;;;;;;16.08;83.21;97737.29;108146;1289;22283;-86
2022/07/27 00:55:38;;;;;;;12.20;9.70;;;;;;;15.90;82.73;97738.63;108049;1290;22423;-86
2022/07/27 00:58:10;;;;;;;11.50;9.20;;;;;;;15.62;83.16;97742.63;108157;1289;22278;-87
2022/07/27 01:00:38;;;;;;;10.20;9.10;;;;;;;15.46;82.99;97750.03;108154;1289;22192;-86
2022/07/27 01:03:06;;;;;;;13.30;8.90;;;;;;;15.32;83.41;97751.42;108010;1290;22286;-86
2022/07/27 01:05:36;;;;;;;11.60;9.50;;;;;;;15.18;83.35;97751.40;108164;1289;22399;-85
2022/07/27 01:08:12;;;;;;;10.50;9.10;;;;;;;15.10;83.58;97753.18;107942;1289;22441;-86
2022/07/27 01:10:42;;;;;;;12.00;8.70;;;;;;;15.04;83.50;97753.08;107797;1290;22508;-85
2022/07/27 01:13:10;;;;;;;10.80;9.20;;;;;;;15.06;85.68;97752.95;108172;1289;22398;-85
2022/07/27 01:15:41;;;;;;;11.40;9.90;;;;;;;15.51;87.05;97745.04;108191;1289;22447;-85
2022/07/27 01:18:26;;;;;;;11.10;8.00;;;;;;;15.92;87.08;97747.79;108211;1290;23007;-85
2022/07/27 01:20:54;;;;;;;;;;;;;;;16.24;85.12;97752.19;108442;1290;22360;-86
2022/07/27 01:23:26;;;;;;;11.70;10.60;;;;;;;16.00;82.76;97756.28;108375;1289;22174;-86
2022/07/27 01:25:54;;;;;;;11.40;10.30;;;;;;;15.71;82.56;97758.16;107946;1290;22357;-85
2022/07/27 01:28:22;;;;;;;15.00;12.00;;;;;;;15.50;83.14;97755.94;107902;1290;22445;-85
2022/07/27 01:30:52;;;;;;;13.60;11.10;;;;;;;15.43;83.95;97754.30;108155;1290;22943;-86
2022/07/27 01:33:24;;;;;;;12.50;11.00;;;;;;;15.52;83.28;97753.05;108187;1289;22291;-86
2022/07/27 01:35:54;;;;;;;14.30;11.50;;;;;;;15.39;82.67;97754.31;108251;1290;22241;-87
2022/07/27 01:38:22;;;;;;;13.40;12.00;;;;;;;15.28;82.77;97755.32;107993;1290;22651;-87
2022/07/27 01:40:52;;;;;;;12.10;10.30;;;;;;;15.07;82.95;97755.55;108162;1290;22453;-87
2022/07/27 01:43:20;;;;;;;16.90;13.80;;;;;;;14.80;83.17;97753.71;107733;1290;22907;-87
2022/07/27 01:45:48;;;;;;;15.80;14.20;;;;;;;14.73;84.67;97752.73;108169;1290;22421;-85
2022/07/27 01:48:16;;;;;;;15.50;13.90;;;;;;;14.84;84.48;97753.94;108159;1290;22384;-86
2022/07/27 01:50:44;;;;;;;15.70;14.20;;;;;;;14.86;84.76;97752.00;108175;1289;22421;-86
2022/07/27 01:53:14;;;;;;;14.80;12.90;;;;;;;15.01;85.01;97752.52;108062;1290;22335;-87
2022/07/27 01:55:42;;;;;;;17.60;15.70;;;;;;;14.95;83.96;97747.69;107833;1288;311464;-87
2022/07/27 01:58:11;;;;;;;16.40;15.00;;;;;;;14.86;84.51;97745.23;108300;1289;22390;-85
2022/07/27 02:00:39;;;;;;;20.90;17.00;;;;;;;14.74;85.66;97745.86;108251;1290;22473;-85
2022/07/27 02:03:09;;;;;;;31.70;17.80;;;;;;;14.60;85.82;97751.75;108234;1290;22423;-84
2022/07/27 02:05:38;;;;;;;19.10;16.90;;;;;;;14.43;86.58;97752.08;108175;1290;22280;-85
2022/07/27 02:08:07;;;;;;;17.20;15.50;;;;;;;14.34;86.69;97750.63;108327;1290;23127;-84
2022/07/27 02:10:36;;;;;;;15.80;13.70;;;;;;;14.27;86.79;97748.98;108005;1290;22485;-87
2022/07/27 02:13:04;;;;;;;12.70;11.40;;;;;;;14.25;87.02;97749.11;108445;1289;22366;-87
2022/07/27 02:15:50;;;;;;;14.20;12.70;;;;;;;14.21;87.21;97749.89;108407;1290;22376;-86
2022/07/27 02:18:22;;;;;;;12.10;10.90;;;;;;;14.25;88.23;97750.29;108325;1290;22297;-84
2022/07/27 02:21:04;;;;;;;15.20;12.40;;;;;;;14.28;88.63;97746.23;108485;1289;22410;-86
2022/07/27 02:23:34;;;;;;;14.30;12.80;;;;;;;14.28;89.36;97751.05;108308;1290;22282;-85
2022/07/27 02:26:07;;;;;;;12.60;11.20;;;;;;;14.24;89.63;97754.27;108363;1289;22403;-86
2022/07/27 02:28:35;;;;;;;13.90;12.00;;;;;;;14.22;89.94;97746.45;108130;1290;22284;-84
2022/07/27 02:31:03;;;;;;;13.30;11.90;;;;;;;14.26;89.90;97753.37;108322;1289;22342;-84
2022/07/27 02:33:31;;;;;;;11.50;10.40;;;;;;;14.22;90.04;97757.06;108319;1289;22295;-84
2022/07/27 02:35:59;;;;;;;12.10;10.30;;;;;;;14.17;90.45;97759.80;108324;1290;22269;-84
2022/07/27 02:38:27;;;;;;;15.10;11.00;;;;;;;14.22;91.41;97755.77;108133;1289;22369;-85
2022/07/27 02:40:55;;;;;;;11.90;10.30;;;;;;;14.41;90.37;97760.45;108316;1289;22321;-86
2022/07/27 02:43:23;;;;;;;9.40;8.50;;;;;;;14.45;90.48;97761.51;108173;1289;22225;-86
2022/07/27 02:45:51;;;;;;;12.30;10.10;;;;;;;14.53;90.36;97757.98;108164;1289;22971;-87
2022/07/27 02:48:19;;;;;;;11.30;9.70;;;;;;;14.63;90.14;97762.98;107888;1290;22448;-86
2022/07/27 02:50:47;;;;;;;10.30;9.30;;;;;;;14.66;89.76;97761.39;108156;1289;22872;-85
2022/07/27 02:53:15;;;;;;;12.30;10.30;;;;;;;14.66;89.40;97762.45;107930;1290;22280;-85
2022/07/27 02:55:43;;;;;;;13.60;11.20;;;;;;;14.57;89.41;97768.55;108187;1289;22202;-85
2022/07/27 02:58:11;;;;;;;11.50;10.10;;;;;;;14.45;89.56;97775.41;108146;1289;22399;-85
2022/07/27 03:00:39;;;;;;;13.10;10.90;;;;;;;14.37;89.93;97778.73;108157;1289;22944;-85
2022/07/27 03:03:07;;;;;;;14.10;10.30;;;;;;;14.39;90.60;97780.96;107874;1290;23054;-85
2022/07/27 03:05:35;;;;;;;11.00;9.90;;;;;;;14.48;90.50;97779.08;108143;1289;22313;-85
2022/07/27 03:08:34;;;;;;;12.30;10.10;;;;;;;14.51;90.33;97785.29;107897;1289;23160;-85
2022/07/27 03:11:03;;;;;;;17.70;10.20;;;;;;;14.51;90.30;97779.02;108070;1289;22378;-85
2022/07/27 03:13:31;;;;;;;13.30;10.60;;;;;;;14.86;93.34;97778.40;107936;1290;22442;-85
2022/07/27 03:16:00;;;;;;;13.00;9.50;;;;;;;15.09;91.32;97780.39;108147;1289;23243;-85
2022/07/27 03:18:28;;;;;;;11.20;10.00;;;;;;;15.13;90.13;97784.80;108151;1289;22348;-85
2022/07/27 03:20:56;;;;;;;11.30;9.90;;;;;;;14.99;89.58;97788.84;108011;1290;22311;-85
2022/07/27 03:23:24;;;;;;;12.00;9.40;;;;;;;14.89;90.90;97785.75;108164;1289;22328;-86
2022/07/27 03:25:52;;;;;;;12.50;10.10;;;;;;;15.25;93.46;97770.38;108029;1290;23167;-85
2022/07/27 03:28:20;;;;;;;11.50;10.30;;;;;;;15.57;91.56;97770.61;108130;1289;22307;-85
2022/07/27 03:30:48;;;;;;;10.90;9.50;;;;;;;15.59;90.02;97773.10;108054;1289;23091;-85
2022/07/27 03:33:16;;;;;;;11.50;10.20;;;;;;;15.30;88.33;97785.48;108060;1290;22489;-84
2022/07/27 03:35:44;;;;;;;13.60;11.00;;;;;;;14.92;88.96;97786.38;108064;1290;23206;-85
2022/07/27 03:38:11;;;;;;;12.60;11.40;;;;;;;14.68;89.22;97795.77;108137;1288;22397;-85
2022/07/27 03:40:40;;;;;;;15.70;11.40;;;;;;;14.45;89.10;97796.31;108127;1289;22356;-84
2022/07/27 03:43:08;;;;;;;12.60;11.00;;;;;;;14.35;89.64;97799.15;107869;1289;22472;-84
2022/07/27 03:45:36;;;;;;;12.50;11.20;;;;;;;14.26;89.98;97797.25;108140;1289;22280;-85
2022/07/27 03:48:05;;;;;;;13.20;11.90;;;;;;;14.24;90.19;97794.67;108076;1289;23225;-86
2022/07/27 03:50:33;;;;;;;14.00;12.60;;;;;;;14.21;90.34;97794.17;107959;1289;22877;-87
2022/07/27 03:53:01;;;;;;;13.10;11.60;;;;;;;14.14;90.14;97800.77;108172;1289;22383;-86
2022/07/27 03:55:29;;;;;;;15.60;13.40;;;;;;;14.19;91.19;97794.31;108024;1290;22313;-87
2022/07/27 03:57:58;;;;;;;14.20;11.50;;;;;;;14.31;91.18;97788.39;107897;1289;22493;-87
2022/07/27 04:00:26;;;;;;;16.60;12.10;;;;;;;14.43;91.18;97786.33;108169;1289;22392;-87
2022/07/27 04:02:54;;;;;;;18.60;15.90;;;;;;;14.59;91.16;97784.02;107978;1290;22342;-86
2022/07/27 04:05:22;;;;;;;18.60;16.50;;;;;;;14.63;90.28;97789.08;108135;1289;22345;-88
2022/07/27 04:07:56;;;;;;;16.50;14.10;;;;;;;14.55;90.35;97786.59;108148;1289;22343;-87
2022/07/27 04:10:24;;;;;;;19.10;17.20;;;;;;;14.57;90.72;97787.06;108146;1289;22453;-87
2022/07/27 04:12:58;;;;;;;18.00;16.20;;;;;;;14.52;90.41;97788.16;107612;1290;22519;-86
2022/07/27 04:15:28;;;;;;;23.50;20.80;;;;;;;14.45;90.39;97787.73;108025;1289;22356;-87
2022/07/27 04:17:56;;;;;;;16.40;14.50;;;;;;;14.52;91.89;97776.70;108162;1289;22320;-87
2022/07/27 04:20:24;;;;;;;17.30;15.50;;;;;;;14.86;93.36;97775.93;107955;1290;22262;-88
2022/07/27 04:22:52;;;;;;;22.60;16.90;;;;;;;15.22;92.45;97782.32;107938;1290;22340;-87
2022/07/27 04:25:21;;;;;;;28.80;21.10;;;;;;;15.28;90.73;97785.77;107953;1289;22468;-88
2022/07/27 04:27:49;;;;;;;26.50;21.50;;;;;;;15.13;90.21;97786.48;108143;1289;23055;-88
2022/07/27 04:30:17;;;;;;;29.40;21.70;;;;;;;14.97;90.59;97786.65;108124;1289;22476;-87
2022/07/27 04:32:45;;;;;;;33.00;24.60;;;;;;;14.80;90.38;97787.31;108138;1289;22388;-87
2022/07/27 04:35:13;;;;;;;24.80;22.00;;;;;;;14.66;90.52;97791.25;108134;1289;22413;-87
2022/07/27 04:37:41;;;;;;;41.00;24.70;;;;;;;14.57;90.82;97796.13;108121;1289;22308;-88
2022/07/27 04:40:30;;;;;;;35.90;24.00;;;;;;;14.46;91.38;97791.81;108159;1289;22421;-87
2022/07/27 04:42:59;;;;;;;51.20;26.30;;;;;;;14.31;91.71;97794.13;108146;1289;22276;-88
2022/07/27 04:45:28;;;;;;;38.50;25.10;;;;;;;14.20;91.63;97795.08;107936;1289;22303;-88
2022/07/27 04:47:56;;;;;;;37.00;23.90;;;;;;;14.14;91.86;97793.39;107755;1290;22283;-87
2022/07/27 04:50:24;;;;;;;22.20;19.00;;;;;;;14.14;91.88;97796.27;108127;1289;22987;-86
2022/07/27 04:52:52;;;;;;;55.90;22.10;;;;;;;14.12;92.72;97798.16;108031;1290;22349;-87
2022/07/27 04:55:20;;;;;;;29.10;20.80;;;;;;;14.03;92.74;97802.05;108029;1290;22444;-86
2022/07/27 04:57:48;;;;;;;35.00;23.50;;;;;;;13.98;92.89;97805.06;107964;1289;22360;-87
2022/07/27 05:00:16;;;;;;;31.70;21.60;;;;;;;13.97;93.09;97803.12;108116;1289;22342;-86
2022/07/27 05:02:44;;;;;;;43.50;26.00;;;;;;;13.96;93.00;97803.14;108128;1289;22376;-86
2022/07/27 05:05:12;;;;;;;36.10;26.50;;;;;;;13.99;93.27;97808.05;108115;1289;22393;-87
2022/07/27 05:07:40;;;;;;;31.40;24.00;;;;;;;13.99;93.80;97815.73;108118;1288;22460;-87
2022/07/27 05:10:08;;;;;;;31.90;19.80;;;;;;;13.99;93.93;97816.11;107649;1290;22259;-86
2022/07/27 05:12:37;;;;;;;32.00;23.20;;;;;;;13.97;94.83;97814.88;108119;1289;22497;-87
2022/07/27 05:15:05;;;;;;;43.70;25.00;;;;;;;13.92;94.92;97822.38;108050;1290;23223;-84
2022/07/27 05:17:34;;;;;;;52.50;23.70;;;;;;;13.90;94.73;97822.92;108030;1290;23103;-86
2022/07/27 05:20:03;;;;;;;30.10;20.60;;;;;;;13.86;94.81;97824.55;108160;1290;22362;-85
2022/07/27 05:22:31;;;;;;;40.80;23.00;;;;;;;13.84;94.86;97820.98;107963;1289;22397;-86
2022/07/27 05:25:06;;;;;;;;;;;;;;;13.86;95.49;97817.52;108141;1289;23069;-85
2022/07/27 05:27:36;;;;;;;27.90;24.20;;;;;;;13.84;95.37;97824.08;108041;1290;22591;-86
2022/07/27 05:30:23;;;;;;;34.40;25.10;;;;;;;13.86;95.32;97824.63;107712;1290;23248;-86
2022/07/27 05:32:51;;;;;;;32.70;24.20;;;;;;;13.87;95.11;97826.53;107757;1290;23184;-85
2022/07/27 05:35:20;;;;;;;26.30;23.60;;;;;;;13.94;95.64;97826.58;108101;1289;22424;-85
2022/07/27 05:37:48;;;;;;;29.90;25.00;;;;;;;13.99;95.81;97823.77;108110;1289;22450;-86
2022/07/27 05:40:16;;;;;;;29.70;26.40;;;;;;;14.04;95.78;97819.89;108105;1289;22279;-87
2022/07/27 05:42:45;;;;;;;28.40;25.40;;;;;;;14.11;95.83;97823.09;108104;1289;22464;-85
2022/07/27 05:45:13;;;;;;;28.80;25.60;;;;;;;14.19;95.90;97819.95;108279;1287;23100;-87
2022/07/27 05:47:41;;;;;;;30.00;26.80;;;;;;;14.25;96.50;97821.77;108283;1286;22275;-85
2022/07/27 05:50:09;;;;;;;29.90;26.90;;;;;;;14.30;97.02;97822.05;108071;1288;23120;-86
2022/07/27 05:52:37;;;;;;;42.00;34.50;;;;;;;14.36;96.63;97830.57;108262;1287;22387;-87
2022/07/27 05:55:06;;;;;;;51.80;38.00;;;;;;;14.47;96.69;97832.18;108048;1288;22453;-86
2022/07/27 05:57:34;;;;;;;50.70;36.90;;;;;;;14.55;96.71;97836.41;108097;1288;22381;-86
2022/07/27 06:00:05;;;;;;;43.50;32.60;;;;;;;14.67;96.53;97842.07;108267;1287;22423;-86
2022/07/27 06:02:39;;;;;;;34.10;30.40;;;;;;;14.77;96.54;97841.06;108273;1288;22397;-87
2022/07/27 06:05:07;;;;;;;21.90;18.10;;;;;;;14.96;97.79;97840.48;108345;1287;22414;-86
2022/07/27 06:07:57;;;;;;;35.00;30.30;;;;;;;15.52;99.85;97837.63;108328;1287;22436;-87
2022/07/27 06:10:27;;;;;;;34.10;30.40;;;;;;;16.16;100.00;97839.52;108285;1288;23021;-87
2022/07/27 06:12:55;;;;;;;39.30;34.00;;;;;;;16.53;97.85;97842.91;108128;1288;22389;-87
2022/07/27 06:15:24;;;;;;;42.00;37.60;;;;;;;16.55;95.62;97848.27;108296;1287;22360;-87
2022/07/27 06:17:52;;;;;;;45.80;40.50;;;;;;;16.47;95.32;97850.58;107891;1287;22335;-88
2022/07/27 06:20:22;;;;;;;47.60;42.00;;;;;;;16.40;95.50;97856.55;107807;1288;22343;-87
2022/07/27 06:22:53;;;;;;;42.20;37.80;;;;;;;16.34;95.71;97848.89;108069;1288;23115;-86
2022/07/27 06:25:23;;;;;;;30.60;27.50;;;;;;;16.54;98.40;97846.90;108282;1288;22315;-86
2022/07/27 06:28:04;;;;;;;50.10;45.00;;;;;;;16.98;97.15;97849.73;107889;1288;23167;-85
2022/07/27 06:30:32;;;;;;;46.10;41.40;;;;;;;17.05;95.03;97853.30;108317;1287;23294;-86
2022/07/27 06:33:05;;;;;;;51.70;46.30;;;;;;;16.96;94.76;97855.21;108077;1288;22423;-86
2022/07/27 06:35:34;;;;;;;45.00;40.30;;;;;;;17.08;95.03;97857.80;108287;1287;22365;-86
2022/07/27 06:38:07;;;;;;;49.70;44.50;;;;;;;17.12;94.94;97861.52;108310;1288;22456;-86
2022/07/27 06:40:35;;;;;;;43.50;37.00;;;;;;;17.37;95.35;97865.00;108314;1287;22991;-86
2022/07/27 06:43:03;;;;;;;40.50;35.80;;;;;;;17.43;94.01;97870.06;108281;1288;22246;-85
2022/07/27 06:45:31;;;;;;;40.00;35.60;;;;;;;17.53;94.66;97872.31;108283;1287;22310;-84
2022/07/27 06:47:59;;;;;;;41.90;37.60;;;;;;;17.64;93.85;97871.55;108289;1287;23145;-90
2022/07/27 06:50:27;;;;;;;44.10;39.40;;;;;;;17.54;92.83;97873.98;108331;1287;22359;-90
2022/07/27 06:52:55;;;;;;;37.20;33.40;;;;;;;17.37;92.08;97872.54;107884;1288;23238;-88
2022/07/27 06:55:23;;;;;;;44.70;37.60;;;;;;;17.20;91.98;97876.02;108314;1287;22284;-89
2022/07/27 06:57:51;;;;;;;48.00;42.70;;;;;;;17.09;91.52;97881.94;108300;1288;23041;-89
2022/07/27 07:00:20;;;;;;;49.70;44.30;;;;;;;16.93;91.35;97882.48;108324;1288;22411;-91
2022/07/27 07:02:54;;;;;;;49.40;44.30;;;;;;;16.84;91.34;97883.11;108364;1287;22424;-90
2022/07/27 07:05:22;;;;;;;49.60;44.70;;;;;;;16.80;92.09;97885.41;108314;1285;23302;-87
2022/07/27 07:07:51;;;;;;;47.20;42.20;;;;;;;16.88;92.19;97878.98;108314;1288;22274;-88
2022/07/27 07:10:20;;;;;;;41.90;37.50;;;;;;;17.00;92.17;97870.40;108317;1287;22167;-88
2022/07/27 07:12:54;;;;;;;41.90;38.00;;;;;;;17.13;92.23;97874.39;108109;1288;22358;-87
2022/07/27 07:15:26;;;;;;;43.00;38.90;;;;;;;17.21;91.78;97884.22;108298;1288;22978;-87
2022/07/27 07:17:54;;;;;;;40.40;36.40;;;;;;;17.24;91.34;97889.13;108319;1288;22384;-87
2022/07/27 07:20:22;;;;;;;33.80;30.60;;;;;;;17.29;90.55;97887.70;108065;1288;23158;-87
2022/07/27 07:22:50;;;;;;;38.00;34.20;;;;;;;17.35;90.73;97883.99;108329;1288;22398;-87
2022/07/27 07:25:18;;;;;;;36.00;32.30;;;;;;;17.49;90.98;97885.27;108297;1288;22497;-87
2022/07/27 07:27:47;;;;;;;38.10;34.10;;;;;;;17.68;91.97;97877.98;108308;1287;23055;-87
2022/07/27 07:30:15;;;;;;;35.20;31.60;;;;;;;17.94;91.26;97881.36;108308;1287;23007;-87
2022/07/27 07:32:43;;;;;;;32.60;29.30;;;;;;;18.10;90.33;97882.17;108286;1287;22293;-87
2022/07/27 07:35:11;;;;;;;32.50;29.20;;;;;;;18.16;89.82;97882.42;108328;1288;22258;-88
2022/07/27 07:37:39;;;;;;;31.50;26.00;;;;;;;18.20;89.35;97886.56;108067;1288;22464;-88
2022/07/27 07:40:09;;;;;;;30.60;26.60;;;;;;;18.25;89.92;97887.95;108069;1288;22470;-88
2022/07/27 07:42:59;;;;;;;32.50;28.80;;;;;;;18.44;88.98;97891.65;108301;1288;22299;-88
2022/07/27 07:45:29;;;;;;;29.00;26.00;;;;;;;18.49;88.35;97888.97;108308;1288;22350;-88
2022/07/27 07:47:57;;;;;;;28.10;23.90;;;;;;;18.54;87.65;97892.05;108302;1288;22463;-87
2022/07/27 07:50:26;;;;;;;28.80;25.80;;;;;;;18.59;87.21;97895.56;107858;1288;22337;-86
2022/07/27 07:52:54;;;;;;;26.60;23.90;;;;;;;18.67;86.67;97891.52;108304;1287;22513;-88
2022/07/27 07:55:26;;;;;;;27.10;24.20;;;;;;;18.82;87.94;97894.10;108288;1288;22170;-87
2022/07/27 07:57:55;;;;;;;24.50;21.90;;;;;;;19.00;87.40;97895.09;108174;1287;22461;-86
2022/07/27 08:00:23;;;;;;;25.90;23.30;;;;;;;19.24;87.56;97896.02;108482;1287;22880;-86
2022/07/27 08:02:54;;;;;;;24.50;22.00;;;;;;;19.47;87.46;97895.06;108318;1287;22436;-87
2022/07/27 08:05:23;;;;;;;26.30;23.60;;;;;;;19.75;86.83;97894.58;108066;1287;22409;-88
2022/07/27 08:07:52;;;;;;;27.50;24.90;;;;;;;19.83;85.32;97895.52;108329;1288;22310;-88
2022/07/27 08:10:22;;;;;;;28.30;25.50;;;;;;;19.67;83.26;97901.98;108315;1287;22969;-89
2022/07/27 08:12:53;;;;;;;26.90;23.90;;;;;;;19.50;84.31;97903.63;108056;1288;22383;-89
2022/07/27 08:15:22;;;;;;;25.70;23.00;;;;;;;19.45;84.08;97909.86;108307;1286;22415;-89
2022/07/27 08:18:04;;;;;;;23.10;20.70;;;;;;;19.39;84.47;97909.16;108159;1288;22474;-90
2022/07/27 08:20:33;;;;;;;23.90;21.50;;;;;;;19.46;84.29;97904.09;108310;1287;22420;-90
2022/07/27 08:23:01;;;;;;;23.90;21.40;;;;;;;19.46;83.78;97907.77;108080;1288;22301;-90
2022/07/27 08:25:30;;;;;;;22.50;20.20;;;;;;;19.40;83.63;97905.92;108349;1288;22314;-91
2022/07/27 08:27:59;;;;;;;22.50;20.40;;;;;;;19.32;82.71;97908.00;108152;1288;22418;-91
2022/07/27 08:30:30;;;;;;;25.90;23.40;;;;;;;19.24;83.31;97907.96;108511;1287;22368;-90
2022/07/27 08:33:02;;;;;;;25.60;23.10;;;;;;;19.21;82.26;97913.45;108458;1287;22285;-90
2022/07/27 08:35:32;;;;;;;28.30;25.50;;;;;;;19.04;81.23;97916.11;108186;1287;22308;-91
2022/07/27 08:38:03;;;;;;;27.60;24.80;;;;;;;18.88;82.43;97914.54;108361;1288;22362;-88
2022/07/27 08:40:33;;;;;;;27.70;24.70;;;;;;;18.88;82.08;97914.61;108321;1287;22570;-87
2022/07/27 08:43:18;;;;;;;26.30;23.40;;;;;;;18.82;81.97;97911.80;108303;1287;22463;-88
2022/07/27 08:45:57;;;;;;;24.70;22.40;;;;;;;18.85;82.19;97911.27;108333;1288;22295;-87
2022/07/27 08:48:27;;;;;;;23.70;21.40;;;;;;;18.98;82.30;97913.67;108281;1287;22356;-87
2022/07/27 08:50:56;;;;;;;26.80;24.00;;;;;;;19.11;82.27;97912.81;108311;1288;22303;-88
2022/07/27 08:53:24;;;;;;;25.60;22.80;;;;;;;19.23;82.02;97912.55;108045;1288;22407;-89
2022/07/27 08:56:00;;;;;;;28.20;25.40;;;;;;;19.33;81.41;97909.42;108289;1287;22165;-88
2022/07/27 08:58:28;;;;;;;30.30;27.10;;;;;;;19.37;80.63;97912.40;108306;1286;22369;-90
2022/07/27 09:00:56;;;;;;;29.00;24.80;;;;;;;19.36;80.95;97906.52;108308;1287;22309;-85
2022/07/27 09:03:24;;;;;;;26.60;23.90;;;;;;;19.44;80.99;97906.63;108290;1288;22412;-87
2022/07/27 09:05:54;;;;;;;26.60;22.80;;;;;;;19.57;81.38;97914.23;108066;1288;22349;-88
2022/07/27 09:08:26;;;;;;;26.20;23.80;;;;;;;19.72;81.13;97916.70;108291;1288;22498;-90
2022/07/27 09:10:58;;;;;;;22.70;20.40;;;;;;;19.75;79.81;97915.37;108103;1288;22308;-87
2022/07/27 09:13:29;;;;;;;25.00;22.40;;;;;;;19.75;80.53;97916.23;108058;1288;22487;-87
2022/07/27 09:16:01;;;;;;;27.50;24.70;;;;;;;19.87;80.00;97918.58;108064;1287;22484;-89
2022/07/27 09:18:45;;;;;;;27.20;24.40;;;;;;;19.91;80.06;97917.65;108130;1288;23145;-88
2022/07/27 09:21:23;;;;;;;29.70;26.60;;;;;;;20.02;78.83;97915.73;108332;1287;23080;-90
2022/07/27 09:24:04;;;;;;;29.10;26.30;;;;;;;20.03;78.84;97909.52;108354;1288;22332;-88
2022/07/27 09:26:49;;;;;;;30.40;27.30;;;;;;;20.07;78.55;97915.15;108171;1288;22374;-88
2022/07/27 09:29:18;;;;;;;31.00;27.60;;;;;;;20.03;77.25;97906.00;108357;1288;22522;-91
2022/07/27 09:31:48;;;;;;;31.00;27.50;;;;;;;20.00;78.19;97902.73;108117;1288;22314;-93
2022/07/27 09:34:32;;;;;;;29.30;26.30;;;;;;;20.17;78.13;97899.31;108357;1288;22494;-92
2022/07/27 09:37:06;;;;;;;28.90;25.90;;;;;;;20.49;78.70;97894.84;108396;1288;23160;-91
2022/07/27 09:39:34;;;;;;;27.10;24.10;;;;;;;20.86;77.83;97889.69;108402;1286;23197;-90
2022/07/27 09:42:02;;;;;;;22.90;20.70;;;;;;;21.24;78.14;97885.66;108304;1288;22403;-91
2022/07/27 09:44:36;;;;;;;29.00;26.00;;;;;;;21.61;77.09;97881.56;108280;1288;22540;-91
2022/07/27 09:47:39;;;;;;;29.20;25.90;;;;;;;21.68;75.58;97886.52;108142;1288;22176;-91
2022/07/27 09:50:20;;;;;;;26.60;23.80;;;;;;;21.65;75.01;97886.48;107668;1293;22527;-91
2022/07/27 09:52:48;;;;;;;26.40;23.10;;;;;;;21.64;74.12;97888.11;107732;1292;23085;-91
2022/07/27 09:55:19;;;;;;;26.30;23.40;;;;;;;21.53;71.88;97883.81;107607;1291;22444;-90
2022/07/27 09:57:55;;;;;;;25.70;22.30;;;;;;;21.42;72.50;97883.27;107668;1292;22393;-90
2022/07/27 10:00:25;;;;;;;24.40;21.60;;;;;;;21.57;74.17;97875.55;107606;1294;22506;-91
2022/07/27 10:02:54;;;;;;;20.90;18.90;;;;;;;21.84;72.85;97876.13;107644;1293;22458;-90
2022/07/27 10:05:22;;;;;;;23.20;20.50;;;;;;;22.01;71.90;97877.02;107576;1293;22483;-90
2022/07/27 10:07:53;;;;;;;25.00;19.90;;;;;;;22.02;71.45;97881.44;107688;1293;22297;-92
2022/07/27 10:10:22;;;;;;;20.20;15.60;;;;;;;22.01;72.26;97877.02;107676;1292;22448;-91
2022/07/27 10:12:51;;;;;;;16.60;14.80;;;;;;;22.18;73.09;97874.72;107566;1294;23073;-90
2022/07/27 10:15:23;;;;;;;21.20;18.20;;;;;;;22.52;73.33;97874.45;107776;1292;22415;-90
2022/07/27 10:18:02;;;;;;;19.30;17.20;;;;;;;22.70;72.54;97870.05;107803;1293;22353;-88
2022/07/27 10:20:38;;;;;;;20.30;18.10;;;;;;;22.75;67.91;97874.57;107711;1288;23251;-91
2022/07/27 10:23:07;;;;;;;20.50;17.00;;;;;;;22.40;67.37;97874.88;108334;1287;22350;-88
2022/07/27 10:25:35;;;;;;;17.40;15.70;;;;;;;22.26;69.91;97873.17;108442;1288;22323;-88
2022/07/27 10:28:09;;;;;;;18.70;14.10;;;;;;;22.34;67.92;97877.09;108390;1288;22380;-91
2022/07/27 10:30:38;;;;;;;12.30;11.10;;;;;;;22.26;68.52;97873.02;108395;1288;23277;-89
2022/07/27 10:33:14;;;;;;;12.20;10.90;;;;;;;22.32;68.73;97868.77;108305;1288;22431;-90
2022/07/27 10:35:42;;;;;;;14.10;10.30;;;;;;;22.48;68.61;97869.30;108070;1288;23262;-89
2022/07/27 10:38:15;;;;;;;15.50;9.30;;;;;;;22.64;68.15;97870.39;108326;1288;22424;-87
2022/07/27 10:40:43;;;;;;;12.20;9.10;;;;;;;22.90;67.94;97873.52;108269;1288;22514;-88
2022/07/27 10:43:21;;;;;;;10.80;8.70;;;;;;;23.10;68.45;97877.29;108318;1288;22430;-91
2022/07/27 10:45:51;;;;;;;10.00;8.60;;;;;;;23.15;68.01;97878.58;108303;1288;22423;-88
2022/07/27 10:48:38;;;;;;;14.00;11.00;;;;;;;23.17;65.94;97877.10;108085;1288;22561;-88
2022/07/27 10:51:15;;;;;;;13.40;10.70;;;;;;;23.01;66.68;97875.52;108310;1288;22752;-90
2022/07/27 10:53:44;;;;;;;12.80;10.60;;;;;;;23.04;64.84;97876.08;108259;1288;22467;-91
2022/07/27 10:56:46;;;;;;;15.10;10.50;;;;;;;23.18;64.63;97876.09;108022;1288;23343;-88
2022/07/27 10:59:34;;;;;;;13.40;9.90;;;;;;;23.34;64.00;97876.27;108274;1288;22955;-88
2022/07/27 11:02:37;;;;;;;12.80;10.00;;;;;;;23.30;62.61;97875.46;108314;1288;22357;-89
2022/07/27 11:05:05;;;;;;;13.70;10.50;;;;;;;23.38;62.09;97876.23;108080;1288;23017;-88
2022/07/27 11:07:43;;;;;;;10.90;8.90;;;;;;;23.42;62.48;97871.75;108304;1288;22488;-86
2022/07/27 11:10:22;;;;;;;12.50;8.90;;;;;;;23.57;63.05;97873.01;108282;1288;23197;-89
2022/07/27 11:12:52;;;;;;;12.40;9.40;;;;;;;23.82;63.33;97864.50;108266;1288;23285;-87
2022/07/27 11:15:20;;;;;;;11.80;8.70;;;;;;;23.95;62.61;97861.65;107886;1288;22501;-84
2022/07/27 11:17:49;;;;;;;11.70;9.30;;;;;;;24.06;62.54;97864.20;108251;1288;23074;-87
2022/07/27 11:20:29;;;;;;;11.00;9.00;;;;;;;24.21;62.34;97858.17;108269;1288;23090;-86
2022/07/27 11:23:01;;;;;;;9.90;8.60;;;;;;;24.37;61.00;97854.20;108251;1287;22944;-86
2022/07/27 11:25:59;;;;;;;13.20;8.10;;;;;;;24.42;60.88;97853.34;108272;1288;22454;-87
2022/07/27 11:28:32;;;;;;;10.50;8.40;;;;;;;24.50;59.85;97854.63;108247;1288;22989;-86